INFORMACIÓN METAR y TAF
METAR FOR GCLA
ADDS - METARS form results

(2351 UTC 23 May 2019)
Data provider http://aviationweather.gov/metar/data/
 
METAR text: GCLA 232330Z AUTO 02013KT 350V050 9999 NCD 20/14 Q1021
Conditions at: GCLA (LA PALMA AIRPORT, ES) observed 2330 UTC 23 May 2019
Temperature: 20.0°C (68°F)
Dewpoint: 14.0°C (57°F) [RH = 68%]
Pressure (altimeter): 30.15 inches Hg (1021.0 mb)
Winds: from the NNE (20 degrees) at 15 MPH (13 knots; 6.7 m/s)
Visibility: 6 or more miles (10+ km)
Ceiling: at least 12,000 feet AGL
Clouds: sky clear below 12,000 feet AGL
Weather: no significant weather observed at this time

METAR text: GCLA 232300Z AUTO 01012KT 9999 NCD 20/13 Q1021
Conditions at: GCLA (LA PALMA AIRPORT, ES) observed 2300 UTC 23 May 2019
Temperature: 20.0°C (68°F)
Dewpoint: 13.0°C (55°F) [RH = 64%]
Pressure (altimeter): 30.15 inches Hg (1021.0 mb)
Winds: from the N (10 degrees) at 14 MPH (12 knots; 6.2 m/s)
Visibility: 6 or more miles (10+ km)
Ceiling: at least 12,000 feet AGL
Clouds: sky clear below 12,000 feet AGL
Weather: no significant weather observed at this time

Forecast for: GCLA (LA PALMA AIRPORT, ES)
Text: TAF GCLA 232000Z 2321/2421 02014KT 9999 BKN035 TX24/2414Z TN19/2406Z
Forecast period: 2100 UTC 23 May 2019 to 2100 UTC 24 May 2019
Forecast type: FROM: standard forecast or significant change
Winds: from the NNE (20 degrees) at 16 MPH (14 knots; 7.2 m/s)
Visibility: 6 or more miles 10+ km)
Ceiling: 3500 feet AGL
Clouds: broken clouds at 3500 feet AGL
Weather: no significant weather forecast for this period

 MAPA DE AEROPUERTO

 INFORMACIÓN DE PISTA
Pista 01 Longitud 7218 ft Ancho 148 ft
Elevación 103 ft Umbral desplazado 0 ft Rumbo de pista 359
Pista 19 Longitud 7218 ft Ancho 148 ft
Elevación 65 ft Umbral desplazado 0 ft Rumbo de pista 179

 FRECUANCIAS DEL AEROPUERTO
Tipo APP Nombre CANARIAS A Frecuencia 126.1 MHZ
Tipo ATIS Nombre INFO Frecuencia 118.6 MHZ
Tipo GND Nombre GND Frecuencia 121.8 MHZ
Tipo TWR Nombre TWR Frecuencia 118.9 MHZ

 RADIO AYUDAS DEL AEROPUERTO
Tipo DME Nombre La Palma Frecuencia 112400 KHZ
Tipo NDB Nombre La Palma Frecuencia 389 KHZ



              


PayPal

©2019 Oasis Virtual Airlines
Simulando desde el 2013

Oasis Líneas Aéreas Virtuales no está relacionada con ninguna compañía real.
Se trata de un entorno virtual de simulación aérea, sin ánimo de lucro.


Visitas:

VAM v2.6.2 [MOD.]